Joslin Field Magic Valley Regional Airport
KTWF : now visible

Airfield :











YOU CAN JOIN US ON...

 
LOGIN :

Register | Disclaimer

   EN    FR    IT 

 









Legend :    VFR   Marginal VFR   IFR   Intensive IFR   Very Intensive IFR
Visi :
Ceiling :
>= 8 km
>= 3000ft
5 to 8 km
1000 to 3000 ft
1500m to 5 km
500 to 1000 ft
800 to 1500m
200 to 500 ft
< 800m
< 200 ft
Symbols :   Thunderstorms  Fog  Heavy snow  Heavy precipitations  Wind > 20 kt






- Airport Elevation : 4154 ft
- IATA code : TWF


KTWF - Joslin Field Magic Valley Regional

CURRENT METAR :
  • 110853Z AUTO 20011KT 10SM CLR 16/04 A2998 RMK AO2 SLP097 T01610039 56008

EXPIRED METARs :
  • 110753Z AUTO 21011KT 10SM CLR 18/04 A2998 RMK AO2 SLP096 T01780039
  • 110653Z AUTO 20011KT 10SM CLR 17/04 A2999 RMK AO2 SLP103 T01720044 402940139

TAF KTWF
Valid from the 11 at 06:00 until the 12 at 06:00 UTC


110529Z 1106/1206 20011KT P6SM SKC
FM111700 30010KT P6SM SCT250
FM120200 18012KT P6SM FEW080 BKN250
KZLC FIR / North America



MET'MAP, your aeronautical weather chart ! - Copyright ORBIFLY December 2007 - Disclaimer

ORBIFLY MET'MAP TEAM :

Programming & Development : Alexandra Zaïnal
Concept & original design : Baudouin d'Aumeries
Assistance for programming : Marc-Olivier Méhu
Technical & hardware support : Manuel Goepfert

Contact : metmap@orbifly.com




SOURCES & CREDITS :

   NOAA       Earth
Advisory